createdAt,value
2019-04-23T00:00:03.701Z,57.26
2019-04-23T00:01:07.897Z,57.44
2019-04-23T00:01:59.781Z,57.54
2019-04-23T00:02:55.784Z,57.65
2019-04-23T00:03:52.102Z,57.65
2019-04-23T00:04:57.348Z,57.98
2019-04-23T00:05:55.161Z,57.78
2019-04-23T00:07:15.721Z,58.59
2019-04-23T00:07:56.114Z,58.49
2019-04-23T00:08:59.184Z,58.39
2019-04-23T00:10:01.154Z,57.87
2019-04-23T00:10:58.497Z,58.39
2019-04-23T00:11:55.171Z,58.08
2019-04-23T00:12:54.203Z,58.28
2019-04-23T00:14:02.812Z,58.28
2019-04-23T00:15:05.146Z,58.39
2019-04-23T00:15:58.635Z,58.28
2019-04-23T00:17:14.973Z,58.08
2019-04-23T00:17:57.240Z,58.28
2019-04-23T00:18:49.488Z,58.28
2019-04-23T00:19:55.641Z,58.49
2019-04-23T00:20:57.705Z,58.28
2019-04-23T00:21:53.528Z,58.49
2019-04-23T00:23:00.158Z,58.18
2019-04-23T00:24:03.107Z,58.31
2019-04-23T00:26:08.080Z,58.62
2019-04-23T00:27:01.963Z,58.92
2019-04-23T00:28:01.814Z,58.21
2019-04-23T00:29:00.997Z,58.41
2019-04-23T00:29:56.427Z,58.82
2019-04-23T00:31:13.682Z,59.00
2019-04-23T00:31:50.802Z,58.82
2019-04-23T00:33:01.050Z,59.12
2019-04-23T00:33:57.816Z,58.62
2019-04-23T00:35:02.486Z,58.31
2019-04-23T00:36:21.184Z,58.01
2019-04-23T00:37:01.558Z,58.31
2019-04-23T00:37:54.960Z,58.31
2019-04-23T00:38:51.291Z,58.21
2019-04-23T00:39:52.424Z,58.31
2019-04-23T00:42:04.994Z,58.51
2019-04-23T00:42:53.376Z,58.31
2019-04-23T00:44:12.295Z,58.31
2019-04-23T00:45:21.285Z,58.34
2019-04-23T00:46:02.332Z,57.90
2019-04-23T00:46:55.762Z,58.01
2019-04-23T00:49:00.737Z,58.62
2019-04-23T00:49:58.569Z,58.01
2019-04-23T00:51:02.959Z,57.50
2019-04-23T00:52:00.742Z,57.73
2019-04-23T00:53:01.528Z,57.29
2019-04-23T00:53:55.062Z,57.83
2019-04-23T00:54:57.012Z,57.83
2019-04-23T00:56:08.986Z,58.44
2019-04-23T00:57:58.116Z,58.14
2019-04-23T00:58:55.003Z,58.34
2019-04-23T01:00:02.027Z,57.93
2019-04-23T01:00:52.695Z,57.73
2019-04-23T01:02:13.292Z,57.62
2019-04-23T01:03:02.994Z,57.32
2019-04-23T01:03:54.803Z,57.32
2019-04-23T01:05:01.275Z,57.73
2019-04-23T01:05:52.401Z,57.93
2019-04-23T01:06:58.391Z,58.14
2019-04-23T01:07:50.127Z,58.34
2019-04-23T01:08:53.210Z,57.62
2019-04-23T01:10:59.903Z,58.03
2019-04-23T01:11:48.213Z,57.73
2019-04-23T01:15:00.028Z,57.42
2019-04-23T01:15:57.711Z,57.83
2019-04-23T01:16:52.976Z,57.62
2019-04-23T01:17:53.375Z,57.24
2019-04-23T01:19:54.806Z,57.42
2019-04-23T01:20:52.931Z,57.42
2019-04-23T01:21:32.713Z,56.71
2019-04-23T01:22:31.741Z,56.60
2019-04-23T01:23:41.824Z,56.81
2019-04-23T01:24:36.337Z,56.53
2019-04-23T01:25:42.650Z,56.73
2019-04-23T01:27:01.726Z,56.73
2019-04-23T01:27:55.855Z,56.73
2019-04-23T01:29:01.617Z,56.81
2019-04-23T01:30:00.882Z,56.43
2019-04-23T01:31:05.274Z,55.99
2019-04-23T01:31:58.547Z,56.02
2019-04-23T01:32:59.414Z,56.20
2019-04-23T01:33:55.419Z,56.20
2019-04-23T01:35:06.585Z,56.20
2019-04-23T01:36:12.452Z,56.40
2019-04-23T01:36:51.656Z,55.79
2019-04-23T01:38:11.907Z,56.12
2019-04-23T01:39:00.293Z,55.58
2019-04-23T01:39:57.702Z,56.43
2019-04-23T01:40:58.039Z,56.02
2019-04-23T01:42:06.762Z,55.91
2019-04-23T01:43:55.207Z,56.53
2019-04-23T01:45:03.380Z,56.23
2019-04-23T01:45:58.943Z,56.23
2019-04-23T01:48:00.068Z,55.94
2019-04-23T01:48:58.321Z,56.02
2019-04-23T01:50:01.587Z,56.23
2019-04-23T01:52:01.777Z,56.63
2019-04-23T01:53:00.740Z,56.53
2019-04-23T01:53:56.660Z,56.23
2019-04-23T01:55:00.882Z,55.84
2019-04-23T01:56:03.114Z,56.02
2019-04-23T01:56:56.263Z,56.23
2019-04-23T01:58:07.882Z,56.02
2019-04-23T01:59:00.263Z,56.15
2019-04-23T02:00:01.600Z,56.45
2019-04-23T02:00:57.752Z,55.84
2019-04-23T02:01:58.825Z,56.76
2019-04-23T02:04:03.604Z,56.66
2019-04-23T02:05:05.979Z,56.58
2019-04-23T02:06:03.297Z,56.89
2019-04-23T02:06:58.009Z,56.76
2019-04-23T02:08:58.565Z,56.45
2019-04-23T02:11:04.763Z,55.84
2019-04-23T02:11:59.097Z,56.45
2019-04-23T02:13:02.245Z,56.15
2019-04-23T02:14:14.306Z,55.84
2019-04-23T02:15:10.234Z,56.17
2019-04-23T02:16:17.526Z,56.15
2019-04-23T02:17:01.296Z,55.87
2019-04-23T02:18:08.102Z,56.27
2019-04-23T02:20:02.009Z,55.76
2019-04-23T02:21:10.277Z,56.17
2019-04-23T02:21:57.660Z,56.58
2019-04-23T02:23:04.413Z,55.97
2019-04-23T02:23:55.624Z,56.68
2019-04-23T02:25:09.514Z,55.87
2019-04-23T02:25:58.753Z,56.07
2019-04-23T02:26:57.579Z,55.15
2019-04-23T02:29:03.681Z,56.58
2019-04-23T02:32:01.456Z,55.28
2019-04-23T02:33:20.146Z,55.05
2019-04-23T02:34:18.930Z,55.38
2019-04-23T02:35:11.726Z,55.15
2019-04-23T02:36:02.497Z,55.49
2019-04-23T02:37:03.852Z,55.38
2019-04-23T02:38:15.781Z,55.87
2019-04-23T02:38:56.331Z,55.05
2019-04-23T02:41:20.223Z,55.15
2019-04-23T02:42:22.945Z,55.05
2019-04-23T02:44:15.212Z,55.05
2019-04-23T02:45:02.729Z,55.46
2019-04-23T02:47:15.486Z,55.15
2019-04-23T02:48:11.044Z,55.26
2019-04-23T02:49:07.103Z,55.36
2019-04-23T02:50:53.662Z,55.15
2019-04-23T02:52:10.529Z,54.97
2019-04-23T02:53:05.229Z,55.28
2019-04-23T02:56:12.173Z,55.08
2019-04-23T02:57:01.292Z,56.51
2019-04-23T02:59:10.851Z,55.28
2019-04-23T03:01:21.630Z,56.81
2019-04-23T03:02:14.833Z,56.71
2019-04-23T03:04:10.388Z,56.12
2019-04-23T03:05:01.905Z,55.92
2019-04-23T03:07:15.937Z,56.94
2019-04-23T03:08:18.508Z,56.63
2019-04-23T03:09:07.105Z,56.33
2019-04-23T03:11:08.131Z,56.63
2019-04-23T03:12:12.014Z,56.43
2019-04-23T03:13:09.723Z,56.84
2019-04-23T03:14:18.546Z,56.63
2019-04-23T03:15:11.214Z,56.53
2019-04-23T03:17:03.371Z,56.43
2019-04-23T03:19:02.560Z,56.63
2019-04-23T03:20:08.315Z,56.63
2019-04-23T03:22:01.463Z,56.02
2019-04-23T03:23:29.125Z,56.02
2019-04-23T03:24:11.058Z,55.92
2019-04-23T03:25:07.262Z,55.82
2019-04-23T03:26:08.555Z,56.66
2019-04-23T03:28:11.010Z,55.92
2019-04-23T03:30:09.117Z,56.02
2019-04-23T03:35:09.052Z,55.84
2019-04-23T03:38:30.089Z,56.15
2019-04-23T03:38:57.823Z,56.46
2019-04-23T03:41:21.334Z,55.13
2019-04-23T03:43:06.672Z,56.46
2019-04-23T03:43:58.699Z,56.05
2019-04-23T03:45:17.595Z,56.25
2019-04-23T03:46:16.167Z,55.13
2019-04-23T03:47:06.653Z,55.23
2019-04-23T03:48:08.535Z,55.33
2019-04-23T03:49:14.973Z,55.54
2019-04-23T03:50:05.211Z,55.74
2019-04-23T03:51:17.221Z,55.33
2019-04-23T03:52:14.239Z,55.33
2019-04-23T03:53:27.331Z,54.92
2019-04-23T03:55:03.385Z,55.33
2019-04-23T03:56:12.462Z,55.54
2019-04-23T03:57:13.903Z,55.33
2019-04-23T03:58:02.364Z,55.43
2019-04-23T04:01:07.643Z,55.43
2019-04-23T04:02:34.033Z,54.95
2019-04-23T04:03:10.393Z,55.02
2019-04-23T04:05:03.938Z,55.26
2019-04-23T04:06:09.143Z,54.95
2019-04-23T04:07:15.499Z,55.05
2019-04-23T04:12:07.817Z,54.54
2019-04-23T04:13:24.346Z,54.61
2019-04-23T04:14:12.556Z,53.59
2019-04-23T04:15:06.019Z,53.90
2019-04-23T04:16:05.025Z,54.23
2019-04-23T04:19:09.517Z,54.00
2019-04-23T04:20:10.531Z,54.03
2019-04-23T04:21:08.677Z,53.92
2019-04-23T04:22:16.362Z,53.49
2019-04-23T04:23:19.557Z,53.59
2019-04-23T04:24:11.369Z,53.59
2019-04-23T04:26:04.643Z,54.00
2019-04-23T04:27:06.058Z,53.39
2019-04-23T04:28:17.719Z,53.59
2019-04-23T04:29:23.004Z,53.59
2019-04-23T04:32:00.992Z,53.39
2019-04-23T04:33:05.914Z,52.57
2019-04-23T04:34:21.426Z,52.67
2019-04-23T04:39:19.768Z,51.91
2019-04-23T04:40:10.950Z,50.66
2019-04-23T04:42:06.158Z,50.53
2019-04-23T04:43:13.550Z,49.79
2019-04-23T04:44:17.279Z,49.26
2019-04-23T04:45:14.108Z,48.44
2019-04-23T04:46:14.924Z,48.65
2019-04-23T04:46:59.261Z,48.22
2019-04-23T04:48:00.742Z,47.30
2019-04-23T04:49:05.556Z,46.85
2019-04-23T04:49:59.612Z,46.64
2019-04-23T04:51:15.927Z,46.11
2019-04-23T04:54:00.982Z,46.11
2019-04-23T04:55:06.802Z,45.40
2019-04-23T04:56:22.407Z,45.30
2019-04-23T04:57:00.088Z,45.61
2019-04-23T04:57:58.613Z,45.40
2019-04-23T04:59:07.687Z,45.20
2019-04-23T05:01:08.329Z,45.18
2019-04-23T05:02:08.645Z,45.07
2019-04-23T05:03:59.938Z,44.85
2019-04-23T05:05:29.767Z,43.93
2019-04-23T05:09:11.723Z,43.10
2019-04-23T05:11:11.264Z,42.98
2019-04-23T05:12:18.455Z,42.96
2019-04-23T05:13:27.542Z,41.72
2019-04-23T05:14:04.260Z,41.62
2019-04-23T05:16:00.533Z,41.84
2019-04-23T05:17:24.096Z,41.56
2019-04-23T05:18:08.343Z,42.07
2019-04-23T05:19:16.122Z,42.17
2019-04-23T05:19:57.450Z,42.57
2019-04-23T05:21:06.106Z,42.05
2019-04-23T05:23:06.047Z,42.05
2019-04-23T05:24:55.433Z,41.21
2019-04-23T05:25:58.052Z,41.21
2019-04-23T05:27:01.046Z,41.50
2019-04-23T05:28:08.171Z,40.48
2019-04-23T05:29:00.122Z,40.59
2019-04-23T05:30:02.923Z,40.59
2019-04-23T05:31:00.101Z,40.56
2019-04-23T05:31:55.630Z,39.94
2019-04-23T05:33:04.309Z,39.42
2019-04-23T05:34:01.479Z,38.89
2019-04-23T05:35:00.589Z,38.48
2019-04-23T05:38:59.424Z,37.13
2019-04-23T05:39:54.569Z,38.04
2019-04-23T05:41:03.909Z,36.81
2019-04-23T05:41:55.355Z,37.01
2019-04-23T05:42:58.410Z,36.29
2019-04-23T05:44:02.322Z,36.59
2019-04-23T05:44:56.625Z,36.93
2019-04-23T05:45:55.212Z,36.91
2019-04-23T05:47:11.518Z,36.21
2019-04-23T05:48:06.742Z,36.21
2019-04-23T05:48:59.853Z,36.69
2019-04-23T05:50:04.944Z,36.63
2019-04-23T05:52:01.810Z,37.23
2019-04-23T05:53:01.373Z,36.91
2019-04-23T05:55:01.644Z,35.78
2019-04-23T05:56:55.377Z,34.94
2019-04-23T05:57:44.575Z,34.54
2019-04-23T05:59:02.822Z,34.95
2019-04-23T05:59:54.827Z,35.38
2019-04-23T06:01:11.409Z,35.78
2019-04-23T06:01:57.246Z,35.33
2019-04-23T06:04:03.338Z,34.10
2019-04-23T06:04:58.533Z,34.91
2019-04-23T06:07:08.388Z,34.30
2019-04-23T06:07:57.835Z,33.88
2019-04-23T06:08:58.443Z,33.48
2019-04-23T06:09:59.891Z,34.32
2019-04-23T06:11:02.232Z,34.92
2019-04-23T06:13:02.976Z,34.62
2019-04-23T06:14:11.799Z,35.36
2019-04-23T06:15:53.095Z,35.31
2019-04-23T06:17:03.759Z,34.50
2019-04-23T06:18:01.806Z,34.32
2019-04-23T06:19:05.403Z,35.04
2019-04-23T06:20:01.074Z,35.14
2019-04-23T06:21:02.509Z,35.14
2019-04-23T06:22:15.434Z,35.75
2019-04-23T06:23:01.976Z,35.97
2019-04-23T06:23:58.266Z,35.44
2019-04-23T06:27:05.260Z,34.62
2019-04-23T06:28:01.570Z,35.01
2019-04-23T06:28:57.411Z,34.62
2019-04-23T06:29:59.363Z,34.20
2019-04-23T06:31:54.167Z,33.87
2019-04-23T06:32:59.564Z,34.39
2019-04-23T06:33:59.176Z,34.82
2019-04-23T06:34:52.876Z,34.89
2019-04-23T06:35:57.263Z,34.47
2019-04-23T06:36:58.985Z,34.07
2019-04-23T06:39:57.025Z,33.16
2019-04-23T06:40:54.298Z,34.27
2019-04-23T06:41:55.057Z,33.75
2019-04-23T06:42:57.921Z,33.15
2019-04-23T06:44:01.962Z,33.75
2019-04-23T06:44:57.638Z,34.47
2019-04-23T06:45:49.753Z,34.57
2019-04-23T06:46:57.347Z,33.45
2019-04-23T06:48:01.865Z,33.22
2019-04-23T06:48:57.178Z,32.48
2019-04-23T06:49:55.361Z,32.18
2019-04-23T06:51:00.774Z,31.57
2019-04-23T06:52:15.045Z,32.17
2019-04-23T06:52:50.060Z,31.66
2019-04-23T06:55:01.481Z,33.20
2019-04-23T06:56:02.089Z,32.70
2019-04-23T06:58:00.716Z,33.65
2019-04-23T06:59:12.355Z,34.24
2019-04-23T06:59:55.087Z,32.48
2019-04-23T07:00:58.718Z,32.38
2019-04-23T07:02:00.661Z,31.74
2019-04-23T07:02:54.873Z,32.26
2019-04-23T07:04:00.283Z,31.54
2019-04-23T07:06:03.675Z,32.15
2019-04-23T07:07:19.167Z,31.33
2019-04-23T07:07:59.327Z,30.40
2019-04-23T07:09:10.593Z,30.30
2019-04-23T07:09:56.132Z,30.28
2019-04-23T07:11:04.771Z,30.10
2019-04-23T07:11:47.941Z,30.19
2019-04-23T07:12:58.744Z,29.57
2019-04-23T07:13:55.767Z,28.62
2019-04-23T07:14:59.582Z,28.72
2019-04-23T07:15:53.448Z,28.42
2019-04-23T07:16:52.607Z,28.92
2019-04-23T07:17:55.512Z,28.41
2019-04-23T07:18:59.116Z,29.22
2019-04-23T07:19:58.089Z,28.72
2019-04-23T07:21:00.661Z,27.81
2019-04-23T07:22:04.272Z,28.94
2019-04-23T07:22:56.789Z,29.32
2019-04-23T07:24:02.352Z,28.21
2019-04-23T07:24:54.657Z,28.19
2019-04-23T07:25:57.844Z,28.81
2019-04-23T07:26:45.291Z,28.84
2019-04-23T07:27:58.507Z,28.77
2019-04-23T07:29:14.885Z,29.58
2019-04-23T07:30:03.300Z,29.44
2019-04-23T07:31:00.009Z,28.82
2019-04-23T07:31:59.056Z,28.21
2019-04-23T07:32:56.643Z,27.06
2019-04-23T07:33:55.822Z,26.75
2019-04-23T07:35:02.454Z,25.61
2019-04-23T07:35:57.858Z,25.38
2019-04-23T07:36:54.655Z,24.68
2019-04-23T07:39:01.879Z,24.68
2019-04-23T07:40:12.965Z,25.51
2019-04-23T07:40:57.389Z,25.85
2019-04-23T07:42:03.091Z,26.88
2019-04-23T07:43:00.031Z,28.31
2019-04-23T07:44:56.671Z,28.81
2019-04-23T07:46:06.444Z,27.67
2019-04-23T07:48:01.572Z,27.57
2019-04-23T07:48:56.452Z,26.97
2019-04-23T07:50:11.067Z,27.27
2019-04-23T07:50:55.089Z,27.27
2019-04-23T07:52:06.257Z,27.13
2019-04-23T07:54:06.000Z,25.81
2019-04-23T07:55:02.951Z,25.63
2019-04-23T07:56:05.790Z,27.34
2019-04-23T07:57:02.602Z,27.24
2019-04-23T07:58:00.722Z,27.23
2019-04-23T07:58:54.384Z,26.25
2019-04-23T08:00:00.748Z,27.26
2019-04-23T08:00:49.031Z,28.68
2019-04-23T08:01:57.453Z,27.77
2019-04-23T08:03:01.197Z,26.83
2019-04-23T08:03:57.645Z,25.79
2019-04-23T08:05:00.871Z,25.93
2019-04-23T08:06:06.820Z,25.82
2019-04-23T08:07:00.747Z,27.43
2019-04-23T08:07:55.831Z,26.92
2019-04-23T08:08:56.852Z,27.51
2019-04-23T08:10:00.502Z,26.75
2019-04-23T08:11:17.939Z,27.22
2019-04-23T08:11:56.246Z,25.90
2019-04-23T08:13:00.984Z,25.37
2019-04-23T08:14:00.445Z,25.04
2019-04-23T08:15:57.422Z,24.23
2019-04-23T08:16:53.783Z,23.93
2019-04-23T08:17:58.838Z,24.96
2019-04-23T08:18:55.690Z,25.78
2019-04-23T08:20:57.159Z,25.18
2019-04-23T08:22:04.637Z,25.18
2019-04-23T08:22:53.543Z,25.27
2019-04-23T08:26:02.407Z,25.07
2019-04-23T08:26:59.724Z,25.79
2019-04-23T08:28:01.287Z,25.38
2019-04-23T08:29:06.413Z,25.59
2019-04-23T08:29:50.858Z,24.96
2019-04-23T08:30:53.784Z,24.94
2019-04-23T08:32:12.046Z,23.63
2019-04-23T08:32:57.090Z,23.91
2019-04-23T08:34:09.153Z,23.21
2019-04-23T08:35:10.583Z,23.60
2019-04-23T08:35:58.990Z,23.64
2019-04-23T08:37:03.181Z,24.91
2019-04-23T08:38:12.386Z,23.93
2019-04-23T08:38:50.557Z,23.71
2019-04-23T08:40:07.871Z,23.83
2019-04-23T08:41:04.221Z,24.73
2019-04-23T08:42:03.617Z,23.63
2019-04-23T08:42:58.518Z,23.71
2019-04-23T08:44:00.428Z,23.69
2019-04-23T08:45:03.126Z,23.43
2019-04-23T08:45:53.082Z,24.95
2019-04-23T08:47:10.377Z,25.14
2019-04-23T08:48:00.738Z,24.44
2019-04-23T08:48:58.691Z,25.04
2019-04-23T08:50:50.272Z,24.65
2019-04-23T08:52:03.751Z,23.52
2019-04-23T08:53:03.774Z,23.71
2019-04-23T08:54:01.433Z,24.90
2019-04-23T08:55:08.374Z,24.62
2019-04-23T08:57:51.132Z,25.05
2019-04-23T08:59:05.398Z,25.25
2019-04-23T09:02:08.555Z,24.54
2019-04-23T09:03:03.050Z,24.90
2019-04-23T09:03:53.541Z,24.10
2019-04-23T09:06:53.125Z,23.89
2019-04-23T09:08:04.035Z,23.37
2019-04-23T09:08:50.324Z,22.38
2019-04-23T09:09:58.981Z,23.26
2019-04-23T09:11:04.775Z,22.25
2019-04-23T09:11:54.335Z,22.16
2019-04-23T09:13:10.116Z,22.56
2019-04-23T09:15:00.849Z,21.86
2019-04-23T09:15:55.479Z,21.58
2019-04-23T09:17:03.403Z,22.27
2019-04-23T09:17:57.932Z,22.78
2019-04-23T09:18:52.801Z,22.06
2019-04-23T09:20:18.745Z,21.88
2019-04-23T09:20:52.979Z,22.45
2019-04-23T09:22:01.985Z,22.16
2019-04-23T09:22:50.350Z,22.86
2019-04-23T09:23:53.767Z,22.47
2019-04-23T09:24:55.480Z,23.00
2019-04-23T09:25:55.886Z,23.70
2019-04-23T09:26:58.626Z,23.81
2019-04-23T09:27:53.109Z,23.63
2019-04-23T09:28:58.024Z,24.72
2019-04-23T09:30:00.093Z,24.00
2019-04-23T09:30:55.275Z,22.97
2019-04-23T09:32:15.095Z,22.86
2019-04-23T09:32:51.957Z,22.45
2019-04-23T09:34:58.861Z,20.62
2019-04-23T09:35:52.746Z,21.11
2019-04-23T09:37:00.157Z,21.24
2019-04-23T09:37:52.634Z,22.08
2019-04-23T09:38:59.871Z,23.48
2019-04-23T09:39:59.559Z,23.38
2019-04-23T09:41:55.384Z,21.86
2019-04-23T09:43:09.279Z,23.69
2019-04-23T09:43:53.911Z,23.91
2019-04-23T09:44:58.440Z,24.21
2019-04-23T09:45:57.481Z,24.13
2019-04-23T09:47:00.856Z,25.00
2019-04-23T09:47:58.771Z,24.73
2019-04-23T09:48:59.294Z,25.02
2019-04-23T09:49:58.951Z,24.64
2019-04-23T09:50:53.810Z,24.43
2019-04-23T09:52:00.772Z,24.91
2019-04-23T09:53:06.383Z,24.38
2019-04-23T09:53:55.609Z,22.96
2019-04-23T09:55:06.086Z,23.37
2019-04-23T09:55:46.833Z,23.39
2019-04-23T09:56:52.676Z,24.02
2019-04-23T09:58:00.473Z,24.60
2019-04-23T09:59:07.423Z,24.87
2019-04-23T10:00:07.554Z,23.26
2019-04-23T10:00:54.923Z,22.66
2019-04-23T10:01:48.329Z,21.67
2019-04-23T10:02:45.694Z,22.34
2019-04-23T10:03:41.742Z,21.44
2019-04-23T10:04:39.864Z,21.22
2019-04-23T10:05:37.268Z,21.14
2019-04-23T10:06:32.138Z,21.67
2019-04-23T10:07:39.710Z,23.00
2019-04-23T10:08:32.137Z,23.28
2019-04-23T10:09:27.664Z,22.99
2019-04-23T10:10:26.174Z,23.19
2019-04-23T10:11:26.188Z,24.30
2019-04-23T10:12:26.313Z,23.07
2019-04-23T10:13:26.192Z,23.37
2019-04-23T10:14:26.150Z,22.88
2019-04-23T10:15:31.409Z,23.26
2019-04-23T10:16:30.223Z,22.75
2019-04-23T10:17:28.395Z,22.77
2019-04-23T10:18:26.833Z,23.48
2019-04-23T10:19:26.737Z,23.37
2019-04-23T10:20:26.769Z,22.58
2019-04-23T10:21:25.827Z,22.86
2019-04-23T10:22:27.163Z,21.95
2019-04-23T10:23:27.197Z,22.52
2019-04-23T10:24:27.541Z,20.83
2019-04-23T10:25:25.845Z,21.02
2019-04-23T10:26:26.050Z,20.12
2019-04-23T10:27:27.235Z,21.03
2019-04-23T10:28:26.565Z,22.36
2019-04-23T10:29:25.839Z,23.38
2019-04-23T10:30:26.892Z,23.57
2019-04-23T10:31:27.033Z,22.56
2019-04-23T10:32:27.235Z,22.97
2019-04-23T10:33:25.727Z,23.86
2019-04-23T10:34:27.313Z,22.88
2019-04-23T10:35:39.435Z,23.27
2019-04-23T10:36:29.515Z,23.00
2019-04-23T10:37:36.754Z,24.73
2019-04-23T10:38:28.181Z,24.60
2019-04-23T10:39:30.408Z,24.91
2019-04-23T10:40:32.543Z,24.82
2019-04-23T10:41:28.038Z,24.41
2019-04-23T10:42:27.912Z,23.70
2019-04-23T10:43:28.289Z,24.00
2019-04-23T10:44:25.725Z,24.79
2019-04-23T10:45:41.378Z,24.00
2019-04-23T10:46:48.841Z,23.68
2019-04-23T10:47:59.017Z,23.69
2019-04-23T10:49:00.668Z,23.48
2019-04-23T10:50:05.536Z,23.18
2019-04-23T10:50:51.277Z,23.37
2019-04-23T10:51:59.755Z,23.39
2019-04-23T10:53:03.806Z,23.68
2019-04-23T10:53:56.247Z,23.27
2019-04-23T10:54:57.626Z,23.68
2019-04-23T10:55:54.105Z,24.79
2019-04-23T10:56:53.289Z,25.24
2019-04-23T10:57:54.770Z,25.43
2019-04-23T10:58:54.179Z,24.42
2019-04-23T10:59:48.844Z,25.71
2019-04-23T11:00:53.409Z,25.10
2019-04-23T11:02:16.754Z,25.21
2019-04-23T11:02:58.835Z,25.10
2019-04-23T11:04:10.049Z,25.49
2019-04-23T11:05:00.029Z,24.56
2019-04-23T11:05:59.735Z,24.88
2019-04-23T11:06:49.924Z,25.60
2019-04-23T11:07:42.297Z,25.29
2019-04-23T11:08:48.267Z,24.27
2019-04-23T11:09:59.321Z,24.97
2019-04-23T11:10:57.900Z,24.69
2019-04-23T11:12:03.792Z,24.99
2019-04-23T11:13:12.182Z,24.38
2019-04-23T11:14:05.409Z,24.68
2019-04-23T11:14:57.818Z,24.99
2019-04-23T11:16:11.321Z,25.40
2019-04-23T11:17:47.912Z,25.82
2019-04-23T11:20:06.886Z,24.41
2019-04-23T11:20:54.347Z,24.77
2019-04-23T11:22:09.894Z,24.55
2019-04-23T11:24:02.053Z,23.36
2019-04-23T11:25:21.652Z,25.09
2019-04-23T11:25:50.410Z,25.48
2019-04-23T11:26:55.781Z,25.00
2019-04-23T11:27:59.709Z,25.72
2019-04-23T11:28:55.435Z,26.82
2019-04-23T11:30:01.833Z,27.05
2019-04-23T11:30:51.267Z,27.76
2019-04-23T11:32:31.733Z,27.34
2019-04-23T11:33:03.444Z,26.82
2019-04-23T11:34:01.787Z,25.52
2019-04-23T11:37:03.994Z,28.91
2019-04-23T11:38:35.248Z,30.07
2019-04-23T11:40:48.990Z,28.08
2019-04-23T11:41:59.977Z,27.48
2019-04-23T11:42:57.901Z,28.27
2019-04-23T11:43:54.941Z,26.95
2019-04-23T11:44:56.564Z,27.31
2019-04-23T11:46:08.141Z,26.82
2019-04-23T11:47:07.145Z,27.15
2019-04-23T11:48:22.004Z,28.67
2019-04-23T11:49:20.144Z,27.76
2019-04-23T11:49:59.487Z,27.56
2019-04-23T11:51:32.298Z,27.26
2019-04-23T11:52:05.609Z,28.27
2019-04-23T11:53:55.889Z,28.77
2019-04-23T11:55:00.804Z,29.84
2019-04-23T11:55:58.876Z,32.53
2019-04-23T11:58:16.640Z,33.58
2019-04-23T11:58:59.686Z,31.91
2019-04-23T11:59:52.840Z,31.37
2019-04-23T12:01:02.177Z,29.93
2019-04-23T12:02:54.232Z,28.70
2019-04-23T12:04:05.132Z,31.07
2019-04-23T12:05:00.851Z,32.01
2019-04-23T12:05:58.253Z,32.21
2019-04-23T12:07:06.203Z,31.99
2019-04-23T12:08:01.066Z,31.94
2019-04-23T12:08:49.180Z,31.48
2019-04-23T12:09:55.101Z,30.01
2019-04-23T12:12:53.689Z,28.46
2019-04-23T12:14:03.884Z,26.93
2019-04-23T12:15:52.912Z,27.62
2019-04-23T12:17:08.201Z,26.10
2019-04-23T12:17:50.776Z,25.00
2019-04-23T12:19:14.437Z,25.92
2019-04-23T12:20:48.793Z,27.12
2019-04-23T12:22:01.441Z,26.84
2019-04-23T12:23:03.921Z,27.35
2019-04-23T12:24:04.610Z,27.25
2019-04-23T12:25:58.641Z,26.97
2019-04-23T12:27:42.019Z,30.46
2019-04-23T12:30:50.632Z,32.44
2019-04-23T12:32:01.923Z,32.84
2019-04-23T12:33:59.175Z,33.24
2019-04-23T12:35:01.449Z,32.32
2019-04-23T12:35:51.945Z,31.93
2019-04-23T12:36:56.849Z,32.86
2019-04-23T12:39:00.497Z,33.36
2019-04-23T12:40:01.743Z,34.16
2019-04-23T12:40:49.249Z,34.08
2019-04-23T12:42:13.618Z,33.67
2019-04-23T12:43:51.649Z,33.47
2019-04-23T12:44:56.853Z,34.19
2019-04-23T12:45:46.862Z,34.89
2019-04-23T12:46:57.557Z,34.39
2019-04-23T12:47:58.257Z,34.81
2019-04-23T12:49:03.300Z,35.33
2019-04-23T12:51:55.990Z,35.95
2019-04-23T12:52:51.019Z,35.93
2019-04-23T12:53:50.645Z,35.43
2019-04-23T12:55:08.614Z,35.43
2019-04-23T12:55:50.518Z,36.32
2019-04-23T12:57:05.352Z,35.93
2019-04-23T12:58:09.898Z,35.83
2019-04-23T12:58:44.997Z,35.63
2019-04-23T12:59:58.313Z,35.33
2019-04-23T13:00:46.036Z,35.83
2019-04-23T13:01:57.598Z,35.73
2019-04-23T13:02:48.679Z,35.61
2019-04-23T13:03:45.596Z,36.00
2019-04-23T13:04:52.463Z,35.51
2019-04-23T13:05:42.209Z,35.82
2019-04-23T13:06:50.954Z,35.89
2019-04-23T13:07:55.471Z,34.58
2019-04-23T13:08:51.540Z,34.69
2019-04-23T13:10:50.130Z,36.21
2019-04-23T13:11:50.093Z,36.32
2019-04-23T13:13:56.794Z,36.54
2019-04-23T13:14:57.655Z,36.41
2019-04-23T13:16:12.365Z,35.91
2019-04-23T13:17:00.756Z,36.00
2019-04-23T13:18:50.037Z,35.48
2019-04-23T13:20:15.074Z,35.96
2019-04-23T13:20:41.496Z,34.55
2019-04-23T13:22:09.635Z,34.26
2019-04-23T13:22:56.172Z,35.86
2019-04-23T13:23:51.129Z,35.16
2019-04-23T13:24:54.335Z,35.89
2019-04-23T13:25:54.234Z,36.30
2019-04-23T13:26:56.062Z,36.02
2019-04-23T13:28:58.156Z,37.22
2019-04-23T13:30:01.994Z,36.63
2019-04-23T13:30:59.034Z,37.04
2019-04-23T13:31:50.229Z,35.89
2019-04-23T13:33:03.126Z,35.80
2019-04-23T13:34:06.993Z,35.98
2019-04-23T13:35:02.907Z,35.60
2019-04-23T13:36:01.106Z,35.80
2019-04-23T13:36:51.444Z,35.89
2019-04-23T13:38:19.545Z,35.98
2019-04-23T13:38:47.005Z,35.98
2019-04-23T13:39:52.959Z,35.38
2019-04-23T13:40:57.122Z,35.50
2019-04-23T13:41:53.934Z,35.88
2019-04-23T13:43:06.949Z,35.89
2019-04-23T13:44:57.517Z,35.98
2019-04-23T13:46:54.485Z,36.50
2019-04-23T13:48:49.177Z,36.72
2019-04-23T13:50:00.264Z,37.44
2019-04-23T13:52:02.983Z,38.04
2019-04-23T13:53:07.877Z,37.94
2019-04-23T13:54:08.196Z,38.06
2019-04-23T13:55:45.503Z,38.78
2019-04-23T13:57:23.703Z,39.28
2019-04-23T13:58:55.010Z,39.28
2019-04-23T13:59:56.123Z,39.60
2019-04-23T14:01:01.361Z,39.40
2019-04-23T14:01:46.688Z,40.20
2019-04-23T14:02:49.240Z,40.12
2019-04-23T14:04:00.119Z,40.12
2019-04-23T14:05:04.513Z,40.62
2019-04-23T14:05:49.521Z,40.62
2019-04-23T14:07:17.332Z,40.70
2019-04-23T14:07:56.587Z,40.70
2019-04-23T14:10:04.638Z,40.61
2019-04-23T14:11:11.037Z,40.41
2019-04-23T14:11:45.172Z,41.13
2019-04-23T14:13:12.463Z,41.63
2019-04-23T14:14:59.988Z,42.66
2019-04-23T14:17:16.581Z,42.55
2019-04-23T14:18:11.517Z,42.66
2019-04-23T14:18:58.506Z,42.86
2019-04-23T14:19:53.769Z,43.06
2019-04-23T14:20:55.123Z,43.16
2019-04-23T14:21:51.482Z,43.68
2019-04-23T14:23:09.368Z,42.86
2019-04-23T14:25:02.534Z,43.06
2019-04-23T14:26:46.319Z,42.84
2019-04-23T14:27:56.525Z,43.96
2019-04-23T14:30:09.287Z,43.56
2019-04-23T14:31:53.321Z,44.07
2019-04-23T14:32:53.723Z,45.00
2019-04-23T14:34:01.297Z,45.79
2019-04-23T14:35:04.812Z,45.59
2019-04-23T14:35:50.899Z,45.92
2019-04-23T14:36:57.575Z,46.93
2019-04-23T14:38:09.485Z,46.53
2019-04-23T14:38:57.311Z,46.02
2019-04-23T14:39:52.894Z,46.04
2019-04-23T14:41:05.368Z,46.45
2019-04-23T14:41:54.245Z,46.04
2019-04-23T14:43:04.349Z,47.05
2019-04-23T14:44:01.818Z,45.74
2019-04-23T14:45:08.114Z,46.25
2019-04-23T14:46:27.224Z,46.65
2019-04-23T14:47:00.700Z,46.47
2019-04-23T14:48:02.813Z,47.67
2019-04-23T14:49:05.473Z,47.58
2019-04-23T14:50:17.351Z,47.98
2019-04-23T14:50:54.566Z,48.18
2019-04-23T14:51:52.943Z,48.28
2019-04-23T14:52:57.115Z,47.58
2019-04-23T14:53:48.446Z,48.49
2019-04-23T14:55:35.409Z,48.30
2019-04-23T14:56:52.266Z,49.21
2019-04-23T14:58:05.552Z,49.52
2019-04-23T14:59:01.516Z,49.84
2019-04-23T14:59:59.127Z,49.82
2019-04-23T15:01:12.781Z,50.15
2019-04-23T15:03:00.274Z,50.04
2019-04-23T15:03:51.488Z,50.04
2019-04-23T15:04:54.394Z,49.74
2019-04-23T15:06:04.997Z,49.46
2019-04-23T15:07:51.228Z,49.24
2019-04-23T15:08:57.399Z,50.04
2019-04-23T15:10:01.445Z,49.74
2019-04-23T15:11:08.248Z,49.33
2019-04-23T15:12:02.184Z,49.74
2019-04-23T15:12:57.480Z,50.15
2019-04-23T15:13:50.148Z,49.96
2019-04-23T15:14:59.828Z,49.76
2019-04-23T15:16:02.892Z,50.27
2019-04-23T15:16:54.814Z,50.87
2019-04-23T15:19:02.589Z,51.07
2019-04-23T15:21:08.086Z,51.48
2019-04-23T15:23:18.741Z,52.21
2019-04-23T15:25:01.338Z,52.11
2019-04-23T15:26:22.600Z,52.31